sensor_id;sensor_type;location;lat;lon;timestamp;temperature;humidity
75500;DHT22;64076;51.466;7.260;2023-11-22T00:00:08;22.30;34.70
75500;DHT22;64076;51.466;7.260;2023-11-22T00:02:33;22.30;34.70
75500;DHT22;64076;51.466;7.260;2023-11-22T00:04:59;22.30;34.70
75500;DHT22;64076;51.466;7.260;2023-11-22T00:07:25;22.30;34.70
75500;DHT22;64076;51.466;7.260;2023-11-22T00:09:54;22.30;34.70
75500;DHT22;64076;51.466;7.260;2023-11-22T00:12:20;22.30;34.70
75500;DHT22;64076;51.466;7.260;2023-11-22T00:14:46;22.30;34.80
75500;DHT22;64076;51.466;7.260;2023-11-22T00:17:12;22.30;34.70
75500;DHT22;64076;51.466;7.260;2023-11-22T00:19:38;22.30;34.70
75500;DHT22;64076;51.466;7.260;2023-11-22T00:22:04;22.30;34.80
75500;DHT22;64076;51.466;7.260;2023-11-22T00:24:37;22.30;34.80
75500;DHT22;64076;51.466;7.260;2023-11-22T00:27:02;22.30;34.80
75500;DHT22;64076;51.466;7.260;2023-11-22T00:29:28;22.30;34.80
75500;DHT22;64076;51.466;7.260;2023-11-22T00:31:54;22.30;34.80
75500;DHT22;64076;51.466;7.260;2023-11-22T00:34:19;22.30;34.80
75500;DHT22;64076;51.466;7.260;2023-11-22T00:36:45;22.30;34.80
75500;DHT22;64076;51.466;7.260;2023-11-22T00:39:10;22.30;34.70
75500;DHT22;64076;51.466;7.260;2023-11-22T00:41:38;22.20;34.70
75500;DHT22;64076;51.466;7.260;2023-11-22T00:44:04;22.30;34.70
75500;DHT22;64076;51.466;7.260;2023-11-22T00:46:34;22.30;34.70
75500;DHT22;64076;51.466;7.260;2023-11-22T00:48:59;22.30;34.70
75500;DHT22;64076;51.466;7.260;2023-11-22T00:51:25;22.30;34.70
75500;DHT22;64076;51.466;7.260;2023-11-22T00:53:51;22.30;34.80
75500;DHT22;64076;51.466;7.260;2023-11-22T00:56:17;22.30;34.70
75500;DHT22;64076;51.466;7.260;2023-11-22T00:58:42;22.20;34.70
75500;DHT22;64076;51.466;7.260;2023-11-22T01:01:08;22.20;34.70
75500;DHT22;64076;51.466;7.260;2023-11-22T01:03:34;22.30;34.70
75500;DHT22;64076;51.466;7.260;2023-11-22T01:06:00;22.20;34.70
75500;DHT22;64076;51.466;7.260;2023-11-22T01:08:26;22.20;34.60
75500;DHT22;64076;51.466;7.260;2023-11-22T01:10:52;22.20;34.60
75500;DHT22;64076;51.466;7.260;2023-11-22T01:13:17;22.20;34.60
75500;DHT22;64076;51.466;7.260;2023-11-22T01:15:43;22.20;34.60
75500;DHT22;64076;51.466;7.260;2023-11-22T01:18:10;22.20;34.60
75500;DHT22;64076;51.466;7.260;2023-11-22T01:20:35;22.20;34.60
75500;DHT22;64076;51.466;7.260;2023-11-22T01:23:01;22.20;34.60
75500;DHT22;64076;51.466;7.260;2023-11-22T01:25:26;22.20;34.60
75500;DHT22;64076;51.466;7.260;2023-11-22T01:27:53;22.20;34.60
75500;DHT22;64076;51.466;7.260;2023-11-22T01:30:19;22.10;34.60
75500;DHT22;64076;51.466;7.260;2023-11-22T01:32:45;22.20;34.70
75500;DHT22;64076;51.466;7.260;2023-11-22T01:35:10;22.10;34.70
75500;DHT22;64076;51.466;7.260;2023-11-22T01:37:36;22.10;34.60
75500;DHT22;64076;51.466;7.260;2023-11-22T01:40:03;22.10;34.60
75500;DHT22;64076;51.466;7.260;2023-11-22T01:42:29;22.10;34.70
75500;DHT22;64076;51.466;7.260;2023-11-22T01:44:55;22.20;34.60
75500;DHT22;64076;51.466;7.260;2023-11-22T01:47:22;22.20;34.70
75500;DHT22;64076;51.466;7.260;2023-11-22T01:49:47;22.20;34.70
75500;DHT22;64076;51.466;7.260;2023-11-22T01:52:13;22.10;34.60
75500;DHT22;64076;51.466;7.260;2023-11-22T01:54:39;22.20;34.70
75500;DHT22;64076;51.466;7.260;2023-11-22T01:57:06;22.20;34.70
75500;DHT22;64076;51.466;7.260;2023-11-22T01:59:34;22.20;34.60
75500;DHT22;64076;51.466;7.260;2023-11-22T02:02:00;22.20;34.60
75500;DHT22;64076;51.466;7.260;2023-11-22T02:04:25;22.20;34.60
75500;DHT22;64076;51.466;7.260;2023-11-22T02:06:52;22.20;34.60
75500;DHT22;64076;51.466;7.260;2023-11-22T02:09:17;22.10;34.50
75500;DHT22;64076;51.466;7.260;2023-11-22T02:11:44;22.10;34.50
75500;DHT22;64076;51.466;7.260;2023-11-22T02:14:13;22.10;34.50
75500;DHT22;64076;51.466;7.260;2023-11-22T02:16:39;22.10;34.50
75500;DHT22;64076;51.466;7.260;2023-11-22T02:19:06;22.10;34.50
75500;DHT22;64076;51.466;7.260;2023-11-22T02:21:33;22.10;34.40
75500;DHT22;64076;51.466;7.260;2023-11-22T02:23:58;22.10;34.40
75500;DHT22;64076;51.466;7.260;2023-11-22T02:26:24;22.10;34.50
75500;DHT22;64076;51.466;7.260;2023-11-22T02:28:50;22.10;34.40
75500;DHT22;64076;51.466;7.260;2023-11-22T02:31:16;22.10;34.40
75500;DHT22;64076;51.466;7.260;2023-11-22T02:33:41;22.10;34.30
75500;DHT22;64076;51.466;7.260;2023-11-22T02:36:07;22.10;34.30
75500;DHT22;64076;51.466;7.260;2023-11-22T02:38:33;22.00;34.40
75500;DHT22;64076;51.466;7.260;2023-11-22T02:41:01;22.10;34.30
75500;DHT22;64076;51.466;7.260;2023-11-22T02:43:26;22.00;34.30
75500;DHT22;64076;51.466;7.260;2023-11-22T02:45:52;22.00;34.30
75500;DHT22;64076;51.466;7.260;2023-11-22T02:48:18;22.00;34.30
75500;DHT22;64076;51.466;7.260;2023-11-22T02:50:44;22.00;34.40
75500;DHT22;64076;51.466;7.260;2023-11-22T02:53:10;22.00;34.40
75500;DHT22;64076;51.466;7.260;2023-11-22T02:55:35;22.00;34.30
75500;DHT22;64076;51.466;7.260;2023-11-22T02:58:01;22.00;34.20
75500;DHT22;64076;51.466;7.260;2023-11-22T03:00:27;22.00;34.20
75500;DHT22;64076;51.466;7.260;2023-11-22T03:02:55;22.00;34.10
75500;DHT22;64076;51.466;7.260;2023-11-22T03:05:24;22.00;34.10
75500;DHT22;64076;51.466;7.260;2023-11-22T03:07:50;22.00;34.10
75500;DHT22;64076;51.466;7.260;2023-11-22T03:10:16;22.00;34.10
75500;DHT22;64076;51.466;7.260;2023-11-22T03:12:43;22.00;34.10
75500;DHT22;64076;51.466;7.260;2023-11-22T03:15:09;22.00;34.10
75500;DHT22;64076;51.466;7.260;2023-11-22T03:17:35;22.00;34.10
75500;DHT22;64076;51.466;7.260;2023-11-22T03:20:00;22.00;34.00
75500;DHT22;64076;51.466;7.260;2023-11-22T03:22:27;22.00;34.00
75500;DHT22;64076;51.466;7.260;2023-11-22T03:24:57;22.00;33.90
75500;DHT22;64076;51.466;7.260;2023-11-22T03:27:24;22.00;33.90
75500;DHT22;64076;51.466;7.260;2023-11-22T03:29:49;22.00;33.90
75500;DHT22;64076;51.466;7.260;2023-11-22T03:32:15;22.00;33.80
75500;DHT22;64076;51.466;7.260;2023-11-22T03:34:40;22.00;33.90
75500;DHT22;64076;51.466;7.260;2023-11-22T03:37:06;21.90;33.80
75500;DHT22;64076;51.466;7.260;2023-11-22T03:39:32;21.90;33.80
75500;DHT22;64076;51.466;7.260;2023-11-22T03:41:58;21.90;33.70
75500;DHT22;64076;51.466;7.260;2023-11-22T03:44:23;21.90;33.70
75500;DHT22;64076;51.466;7.260;2023-11-22T03:46:49;21.90;33.60
75500;DHT22;64076;51.466;7.260;2023-11-22T03:49:14;21.90;33.50
75500;DHT22;64076;51.466;7.260;2023-11-22T03:51:41;21.90;33.50
75500;DHT22;64076;51.466;7.260;2023-11-22T03:54:07;21.90;33.40
75500;DHT22;64076;51.466;7.260;2023-11-22T03:56:35;21.90;33.50
75500;DHT22;64076;51.466;7.260;2023-11-22T03:59:00;21.90;33.50
75500;DHT22;64076;51.466;7.260;2023-11-22T04:01:26;21.90;33.50
75500;DHT22;64076;51.466;7.260;2023-11-22T04:03:52;21.90;33.40
75500;DHT22;64076;51.466;7.260;2023-11-22T04:06:18;21.90;33.50
75500;DHT22;64076;51.466;7.260;2023-11-22T04:08:45;21.90;33.50
75500;DHT22;64076;51.466;7.260;2023-11-22T04:11:14;21.90;33.50
75500;DHT22;64076;51.466;7.260;2023-11-22T04:13:40;21.90;33.60
75500;DHT22;64076;51.466;7.260;2023-11-22T04:16:09;21.90;33.50
75500;DHT22;64076;51.466;7.260;2023-11-22T04:18:41;21.90;33.50
75500;DHT22;64076;51.466;7.260;2023-11-22T04:21:07;21.90;33.50
75500;DHT22;64076;51.466;7.260;2023-11-22T04:23:34;21.90;33.40
75500;DHT22;64076;51.466;7.260;2023-11-22T04:26:00;21.90;33.40
75500;DHT22;64076;51.466;7.260;2023-11-22T04:28:26;21.90;33.30
75500;DHT22;64076;51.466;7.260;2023-11-22T04:30:52;21.90;33.30
75500;DHT22;64076;51.466;7.260;2023-11-22T04:33:19;21.90;33.30
75500;DHT22;64076;51.466;7.260;2023-11-22T04:35:44;21.90;33.20
75500;DHT22;64076;51.466;7.260;2023-11-22T04:38:11;21.90;33.10
75500;DHT22;64076;51.466;7.260;2023-11-22T04:40:37;21.90;33.10
75500;DHT22;64076;51.466;7.260;2023-11-22T04:43:02;21.90;33.10
75500;DHT22;64076;51.466;7.260;2023-11-22T04:45:28;21.90;33.00
75500;DHT22;64076;51.466;7.260;2023-11-22T04:47:53;21.90;32.90
75500;DHT22;64076;51.466;7.260;2023-11-22T04:50:19;21.90;32.90
75500;DHT22;64076;51.466;7.260;2023-11-22T04:52:45;21.90;33.00
75500;DHT22;64076;51.466;7.260;2023-11-22T04:55:11;21.90;33.00
75500;DHT22;64076;51.466;7.260;2023-11-22T04:57:36;21.80;32.90
75500;DHT22;64076;51.466;7.260;2023-11-22T05:00:02;21.80;32.80
75500;DHT22;64076;51.466;7.260;2023-11-22T05:02:30;21.80;32.70
75500;DHT22;64076;51.466;7.260;2023-11-22T05:04:55;21.80;32.70
75500;DHT22;64076;51.466;7.260;2023-11-22T05:07:22;21.80;32.70
75500;DHT22;64076;51.466;7.260;2023-11-22T05:09:48;21.80;32.60
75500;DHT22;64076;51.466;7.260;2023-11-22T05:12:13;21.80;32.60
75500;DHT22;64076;51.466;7.260;2023-11-22T05:14:40;21.80;32.50
75500;DHT22;64076;51.466;7.260;2023-11-22T05:17:06;21.80;32.60
75500;DHT22;64076;51.466;7.260;2023-11-22T05:19:31;21.80;32.60
75500;DHT22;64076;51.466;7.260;2023-11-22T05:21:57;21.80;32.60
75500;DHT22;64076;51.466;7.260;2023-11-22T05:24:23;21.80;32.60
75500;DHT22;64076;51.466;7.260;2023-11-22T05:26:49;21.80;32.60
75500;DHT22;64076;51.466;7.260;2023-11-22T05:29:14;21.80;32.60
75500;DHT22;64076;51.466;7.260;2023-11-22T05:31:43;21.80;32.60
75500;DHT22;64076;51.466;7.260;2023-11-22T05:34:08;21.80;32.60
75500;DHT22;64076;51.466;7.260;2023-11-22T05:36:34;21.80;32.60
75500;DHT22;64076;51.466;7.260;2023-11-22T05:38:59;21.80;32.60
75500;DHT22;64076;51.466;7.260;2023-11-22T05:41:25;21.80;32.60
75500;DHT22;64076;51.466;7.260;2023-11-22T05:43:51;21.80;32.50
75500;DHT22;64076;51.466;7.260;2023-11-22T05:46:18;21.80;32.40
75500;DHT22;64076;51.466;7.260;2023-11-22T05:48:49;21.80;32.40
75500;DHT22;64076;51.466;7.260;2023-11-22T05:51:16;21.80;32.40
75500;DHT22;64076;51.466;7.260;2023-11-22T05:53:41;21.80;32.40
75500;DHT22;64076;51.466;7.260;2023-11-22T05:56:07;21.80;32.40
75500;DHT22;64076;51.466;7.260;2023-11-22T05:58:36;21.80;32.40
75500;DHT22;64076;51.466;7.260;2023-11-22T06:01:07;21.80;32.30
75500;DHT22;64076;51.466;7.260;2023-11-22T06:03:35;21.70;32.20
75500;DHT22;64076;51.466;7.260;2023-11-22T06:06:01;21.80;32.30
75500;DHT22;64076;51.466;7.260;2023-11-22T06:08:28;21.70;32.20
75500;DHT22;64076;51.466;7.260;2023-11-22T06:10:54;21.70;32.30
75500;DHT22;64076;51.466;7.260;2023-11-22T06:13:23;21.70;32.30
75500;DHT22;64076;51.466;7.260;2023-11-22T06:15:49;21.70;32.20
75500;DHT22;64076;51.466;7.260;2023-11-22T06:18:14;21.70;32.20
75500;DHT22;64076;51.466;7.260;2023-11-22T06:20:41;21.70;31.90
75500;DHT22;64076;51.466;7.260;2023-11-22T06:23:07;21.70;31.90
75500;DHT22;64076;51.466;7.260;2023-11-22T06:25:32;21.70;31.50
75500;DHT22;64076;51.466;7.260;2023-11-22T06:27:58;21.80;31.30
75500;DHT22;64076;51.466;7.260;2023-11-22T06:30:23;21.90;31.20
75500;DHT22;64076;51.466;7.260;2023-11-22T06:32:50;21.90;31.00
75500;DHT22;64076;51.466;7.260;2023-11-22T06:35:16;22.00;30.90
75500;DHT22;64076;51.466;7.260;2023-11-22T06:37:43;22.00;30.80
75500;DHT22;64076;51.466;7.260;2023-11-22T06:40:10;22.10;30.70
75500;DHT22;64076;51.466;7.260;2023-11-22T06:42:38;22.10;30.60
75500;DHT22;64076;51.466;7.260;2023-11-22T06:45:05;22.20;30.50
75500;DHT22;64076;51.466;7.260;2023-11-22T06:47:32;22.20;30.40
75500;DHT22;64076;51.466;7.260;2023-11-22T06:50:00;22.20;30.30
75500;DHT22;64076;51.466;7.260;2023-11-22T06:52:26;22.20;30.20
75500;DHT22;64076;51.466;7.260;2023-11-22T06:54:51;22.30;30.10
75500;DHT22;64076;51.466;7.260;2023-11-22T06:57:17;22.30;30.10
75500;DHT22;64076;51.466;7.260;2023-11-22T06:59:42;22.30;30.00
75500;DHT22;64076;51.466;7.260;2023-11-22T07:02:08;22.30;30.00
75500;DHT22;64076;51.466;7.260;2023-11-22T07:04:33;22.30;29.90
75500;DHT22;64076;51.466;7.260;2023-11-22T07:06:59;22.40;29.90
75500;DHT22;64076;51.466;7.260;2023-11-22T07:09:26;22.40;29.90
75500;DHT22;64076;51.466;7.260;2023-11-22T07:11:51;22.50;29.90
75500;DHT22;64076;51.466;7.260;2023-11-22T07:14:18;22.50;29.90
75500;DHT22;64076;51.466;7.260;2023-11-22T07:16:44;22.50;29.90
75500;DHT22;64076;51.466;7.260;2023-11-22T07:19:11;22.60;29.80
75500;DHT22;64076;51.466;7.260;2023-11-22T07:21:37;22.70;29.80
75500;DHT22;64076;51.466;7.260;2023-11-22T07:24:04;22.70;29.80
75500;DHT22;64076;51.466;7.260;2023-11-22T07:26:32;22.80;29.60
75500;DHT22;64076;51.466;7.260;2023-11-22T07:28:58;22.80;29.50
75500;DHT22;64076;51.466;7.260;2023-11-22T07:31:24;22.90;29.50
75500;DHT22;64076;51.466;7.260;2023-11-22T07:33:50;22.90;29.40
75500;DHT22;64076;51.466;7.260;2023-11-22T07:36:17;22.90;29.30
75500;DHT22;64076;51.466;7.260;2023-11-22T07:38:42;22.90;29.40
75500;DHT22;64076;51.466;7.260;2023-11-22T07:41:08;22.90;29.30
75500;DHT22;64076;51.466;7.260;2023-11-22T07:43:34;22.90;29.20
75500;DHT22;64076;51.466;7.260;2023-11-22T07:45:59;22.90;29.20
75500;DHT22;64076;51.466;7.260;2023-11-22T07:48:26;22.90;29.20
75500;DHT22;64076;51.466;7.260;2023-11-22T07:50:52;23.00;29.20
75500;DHT22;64076;51.466;7.260;2023-11-22T07:53:18;23.00;29.10
75500;DHT22;64076;51.466;7.260;2023-11-22T07:55:44;23.00;29.10
75500;DHT22;64076;51.466;7.260;2023-11-22T07:58:09;23.00;29.10
75500;DHT22;64076;51.466;7.260;2023-11-22T08:00:36;23.00;29.10
75500;DHT22;64076;51.466;7.260;2023-11-22T08:03:07;23.00;29.00
75500;DHT22;64076;51.466;7.260;2023-11-22T08:05:32;23.00;29.00
75500;DHT22;64076;51.466;7.260;2023-11-22T08:08:04;23.00;29.00
75500;DHT22;64076;51.466;7.260;2023-11-22T08:10:34;23.10;29.00
75500;DHT22;64076;51.466;7.260;2023-11-22T08:13:00;23.10;29.00
75500;DHT22;64076;51.466;7.260;2023-11-22T08:15:27;23.10;28.90
75500;DHT22;64076;51.466;7.260;2023-11-22T08:17:53;23.10;29.00
75500;DHT22;64076;51.466;7.260;2023-11-22T08:20:19;23.10;28.90
75500;DHT22;64076;51.466;7.260;2023-11-22T08:22:45;23.10;28.90
75500;DHT22;64076;51.466;7.260;2023-11-22T08:25:11;23.20;28.90
75500;DHT22;64076;51.466;7.260;2023-11-22T08:27:39;23.20;28.90
75500;DHT22;64076;51.466;7.260;2023-11-22T08:30:06;23.20;28.90
75500;DHT22;64076;51.466;7.260;2023-11-22T08:32:35;23.20;28.80
75500;DHT22;64076;51.466;7.260;2023-11-22T08:35:00;23.30;28.70
75500;DHT22;64076;51.466;7.260;2023-11-22T08:37:26;23.30;28.70
75500;DHT22;64076;51.466;7.260;2023-11-22T08:39:52;23.30;28.60
75500;DHT22;64076;51.466;7.260;2023-11-22T08:42:17;23.30;28.60
75500;DHT22;64076;51.466;7.260;2023-11-22T08:44:43;23.30;28.50
75500;DHT22;64076;51.466;7.260;2023-11-22T08:47:08;23.40;28.50
75500;DHT22;64076;51.466;7.260;2023-11-22T08:49:34;23.40;28.50
75500;DHT22;64076;51.466;7.260;2023-11-22T08:52:00;23.40;28.50
75500;DHT22;64076;51.466;7.260;2023-11-22T08:54:29;23.40;28.40
75500;DHT22;64076;51.466;7.260;2023-11-22T08:56:55;23.40;28.40
75500;DHT22;64076;51.466;7.260;2023-11-22T08:59:23;23.50;28.40
75500;DHT22;64076;51.466;7.260;2023-11-22T09:01:49;23.40;28.40
75500;DHT22;64076;51.466;7.260;2023-11-22T09:04:14;23.40;28.20
75500;DHT22;64076;51.466;7.260;2023-11-22T09:06:41;23.50;28.20
75500;DHT22;64076;51.466;7.260;2023-11-22T09:09:07;23.50;28.10
75500;DHT22;64076;51.466;7.260;2023-11-22T09:11:33;23.50;28.10
75500;DHT22;64076;51.466;7.260;2023-11-22T09:14:00;23.50;28.30
75500;DHT22;64076;51.466;7.260;2023-11-22T09:16:35;23.50;28.30
75500;DHT22;64076;51.466;7.260;2023-11-22T09:19:01;23.50;28.20
75500;DHT22;64076;51.466;7.260;2023-11-22T09:21:26;23.50;28.20
75500;DHT22;64076;51.466;7.260;2023-11-22T09:23:52;23.50;28.00
75500;DHT22;64076;51.466;7.260;2023-11-22T09:26:17;23.50;28.00
75500;DHT22;64076;51.466;7.260;2023-11-22T09:28:44;23.50;27.90
75500;DHT22;64076;51.466;7.260;2023-11-22T09:31:09;23.50;27.70
75500;DHT22;64076;51.466;7.260;2023-11-22T09:37:31;23.50;27.60
75500;DHT22;64076;51.466;7.260;2023-11-22T09:56:08;23.60;27.60
75500;DHT22;64076;51.466;7.260;2023-11-22T09:58:35;23.60;27.40
75500;DHT22;64076;51.466;7.260;2023-11-22T10:01:03;23.60;27.50
75500;DHT22;64076;51.466;7.260;2023-11-22T10:17:57;23.60;27.00
75500;DHT22;64076;51.466;7.260;2023-11-22T10:20:37;23.60;26.90
75500;DHT22;64076;51.466;7.260;2023-11-22T10:23:03;23.60;26.90
75500;DHT22;64076;51.466;7.260;2023-11-22T10:25:29;23.60;26.70
75500;DHT22;64076;51.466;7.260;2023-11-22T10:27:57;23.60;26.70
75500;DHT22;64076;51.466;7.260;2023-11-22T10:30:23;23.70;26.60
75500;DHT22;64076;51.466;7.260;2023-11-22T10:32:50;23.70;26.60
75500;DHT22;64076;51.466;7.260;2023-11-22T10:35:18;23.70;26.60
75500;DHT22;64076;51.466;7.260;2023-11-22T10:37:47;23.70;26.60
75500;DHT22;64076;51.466;7.260;2023-11-22T10:40:14;23.70;26.50
75500;DHT22;64076;51.466;7.260;2023-11-22T10:42:41;23.70;26.40
75500;DHT22;64076;51.466;7.260;2023-11-22T10:45:09;23.70;26.20
75500;DHT22;64076;51.466;7.260;2023-11-22T10:47:37;23.70;26.10
75500;DHT22;64076;51.466;7.260;2023-11-22T10:50:05;23.70;26.00
75500;DHT22;64076;51.466;7.260;2023-11-22T10:52:34;23.70;26.10
75500;DHT22;64076;51.466;7.260;2023-11-22T10:55:04;23.70;26.10
75500;DHT22;64076;51.466;7.260;2023-11-22T10:57:32;23.70;26.00
75500;DHT22;64076;51.466;7.260;2023-11-22T11:00:03;23.80;26.00
75500;DHT22;64076;51.466;7.260;2023-11-22T11:02:37;23.80;25.90
75500;DHT22;64076;51.466;7.260;2023-11-22T11:05:14;23.80;25.80
75500;DHT22;64076;51.466;7.260;2023-11-22T11:07:49;23.70;25.80
75500;DHT22;64076;51.466;7.260;2023-11-22T11:10:20;23.80;25.60
75500;DHT22;64076;51.466;7.260;2023-11-22T11:12:46;23.80;25.50
75500;DHT22;64076;51.466;7.260;2023-11-22T11:15:13;23.80;25.40
75500;DHT22;64076;51.466;7.260;2023-11-22T11:17:39;23.80;25.30
75500;DHT22;64076;51.466;7.260;2023-11-22T11:20:05;23.80;25.20
75500;DHT22;64076;51.466;7.260;2023-11-22T11:22:32;23.80;25.20
75500;DHT22;64076;51.466;7.260;2023-11-22T11:25:04;23.80;25.20
75500;DHT22;64076;51.466;7.260;2023-11-22T11:27:34;23.80;25.20
75500;DHT22;64076;51.466;7.260;2023-11-22T11:33:09;23.80;25.20
75500;DHT22;64076;51.466;7.260;2023-11-22T11:35:38;23.80;25.00
75500;DHT22;64076;51.466;7.260;2023-11-22T11:38:05;23.80;24.90
75500;DHT22;64076;51.466;7.260;2023-11-22T11:40:34;23.80;24.80
75500;DHT22;64076;51.466;7.260;2023-11-22T11:43:00;23.80;24.60
75500;DHT22;64076;51.466;7.260;2023-11-22T11:45:27;23.70;24.60
75500;DHT22;64076;51.466;7.260;2023-11-22T11:47:54;23.70;24.60
75500;DHT22;64076;51.466;7.260;2023-11-22T11:50:23;23.70;24.50
75500;DHT22;64076;51.466;7.260;2023-11-22T11:52:48;23.60;24.60
75500;DHT22;64076;51.466;7.260;2023-11-22T11:55:14;23.70;24.70
75500;DHT22;64076;51.466;7.260;2023-11-22T11:57:43;23.70;24.60
75500;DHT22;64076;51.466;7.260;2023-11-22T12:00:13;23.70;24.60
75500;DHT22;64076;51.466;7.260;2023-11-22T12:02:40;23.70;24.50
75500;DHT22;64076;51.466;7.260;2023-11-22T12:05:06;23.70;24.60
75500;DHT22;64076;51.466;7.260;2023-11-22T12:07:35;23.70;24.30
75500;DHT22;64076;51.466;7.260;2023-11-22T12:10:01;23.70;24.20
75500;DHT22;64076;51.466;7.260;2023-11-22T12:12:26;23.70;24.20
75500;DHT22;64076;51.466;7.260;2023-11-22T12:14:52;23.70;24.30
75500;DHT22;64076;51.466;7.260;2023-11-22T12:17:19;23.70;24.20
75500;DHT22;64076;51.466;7.260;2023-11-22T12:19:44;23.70;24.20
75500;DHT22;64076;51.466;7.260;2023-11-22T12:22:10;23.70;24.10
75500;DHT22;64076;51.466;7.260;2023-11-22T12:24:37;23.70;24.10
75500;DHT22;64076;51.466;7.260;2023-11-22T12:27:03;23.70;24.10
75500;DHT22;64076;51.466;7.260;2023-11-22T12:29:31;23.70;24.00
75500;DHT22;64076;51.466;7.260;2023-11-22T12:31:56;23.70;24.10
75500;DHT22;64076;51.466;7.260;2023-11-22T12:34:23;23.80;24.20
75500;DHT22;64076;51.466;7.260;2023-11-22T12:36:52;23.70;24.30
75500;DHT22;64076;51.466;7.260;2023-11-22T12:39:20;23.70;24.50
75500;DHT22;64076;51.466;7.260;2023-11-22T12:41:51;23.70;24.60
75500;DHT22;64076;51.466;7.260;2023-11-22T12:44:17;23.70;24.80
75500;DHT22;64076;51.466;7.260;2023-11-22T12:47:03;23.80;24.80
75500;DHT22;64076;51.466;7.260;2023-11-22T12:49:43;23.80;24.90
75500;DHT22;64076;51.466;7.260;2023-11-22T12:52:13;23.80;24.70
75500;DHT22;64076;51.466;7.260;2023-11-22T12:54:39;23.80;24.90
75500;DHT22;64076;51.466;7.260;2023-11-22T12:57:10;23.80;24.90
75500;DHT22;64076;51.466;7.260;2023-11-22T12:59:38;23.80;24.90
75500;DHT22;64076;51.466;7.260;2023-11-22T13:02:05;23.80;24.80
75500;DHT22;64076;51.466;7.260;2023-11-22T13:04:32;23.70;24.90
75500;DHT22;64076;51.466;7.260;2023-11-22T13:06:58;23.70;24.90
75500;DHT22;64076;51.466;7.260;2023-11-22T13:09:25;23.70;24.80
75500;DHT22;64076;51.466;7.260;2023-11-22T13:11:51;23.70;24.80
75500;DHT22;64076;51.466;7.260;2023-11-22T13:14:17;23.70;24.90
75500;DHT22;64076;51.466;7.260;2023-11-22T13:16:43;23.70;24.80
75500;DHT22;64076;51.466;7.260;2023-11-22T13:19:10;23.70;24.80
75500;DHT22;64076;51.466;7.260;2023-11-22T13:21:36;23.70;24.70
75500;DHT22;64076;51.466;7.260;2023-11-22T13:24:02;23.70;24.70
75500;DHT22;64076;51.466;7.260;2023-11-22T13:26:29;23.70;24.70
75500;DHT22;64076;51.466;7.260;2023-11-22T13:28:54;23.80;24.80
75500;DHT22;64076;51.466;7.260;2023-11-22T13:31:20;23.70;24.80
75500;DHT22;64076;51.466;7.260;2023-11-22T13:33:47;23.70;24.80
75500;DHT22;64076;51.466;7.260;2023-11-22T13:36:13;23.80;24.90
75500;DHT22;64076;51.466;7.260;2023-11-22T13:38:40;23.80;24.90
75500;DHT22;64076;51.466;7.260;2023-11-22T13:41:05;23.80;24.80
75500;DHT22;64076;51.466;7.260;2023-11-22T13:43:31;23.80;24.80
75500;DHT22;64076;51.466;7.260;2023-11-22T13:45:58;23.80;24.90
75500;DHT22;64076;51.466;7.260;2023-11-22T13:48:26;23.80;24.90
75500;DHT22;64076;51.466;7.260;2023-11-22T13:50:52;23.80;24.90
75500;DHT22;64076;51.466;7.260;2023-11-22T13:53:17;23.80;24.90
75500;DHT22;64076;51.466;7.260;2023-11-22T13:55:50;23.80;24.90
75500;DHT22;64076;51.466;7.260;2023-11-22T13:58:17;23.90;25.00
75500;DHT22;64076;51.466;7.260;2023-11-22T14:00:43;23.90;25.00
75500;DHT22;64076;51.466;7.260;2023-11-22T14:03:08;23.90;25.10
75500;DHT22;64076;51.466;7.260;2023-11-22T14:05:37;23.90;25.00
75500;DHT22;64076;51.466;7.260;2023-11-22T14:08:04;23.90;25.00
75500;DHT22;64076;51.466;7.260;2023-11-22T14:10:31;23.90;25.00
75500;DHT22;64076;51.466;7.260;2023-11-22T14:12:57;23.90;25.00
75500;DHT22;64076;51.466;7.260;2023-11-22T14:15:26;23.90;25.00
75500;DHT22;64076;51.466;7.260;2023-11-22T14:17:55;23.90;25.10
75500;DHT22;64076;51.466;7.260;2023-11-22T14:20:20;23.90;25.00
75500;DHT22;64076;51.466;7.260;2023-11-22T14:22:46;23.90;25.00
75500;DHT22;64076;51.466;7.260;2023-11-22T14:25:13;23.90;25.00
75500;DHT22;64076;51.466;7.260;2023-11-22T14:27:41;23.90;24.90
75500;DHT22;64076;51.466;7.260;2023-11-22T14:30:08;23.90;24.90
75500;DHT22;64076;51.466;7.260;2023-11-22T14:32:34;23.90;24.80
75500;DHT22;64076;51.466;7.260;2023-11-22T14:35:03;23.90;24.80
75500;DHT22;64076;51.466;7.260;2023-11-22T14:37:29;23.90;24.70
75500;DHT22;64076;51.466;7.260;2023-11-22T14:39:56;23.90;24.70
75500;DHT22;64076;51.466;7.260;2023-11-22T14:42:24;23.90;24.60
75500;DHT22;64076;51.466;7.260;2023-11-22T14:44:50;23.90;24.50
75500;DHT22;64076;51.466;7.260;2023-11-22T14:47:17;23.90;24.60
75500;DHT22;64076;51.466;7.260;2023-11-22T14:49:49;23.90;24.60
75500;DHT22;64076;51.466;7.260;2023-11-22T14:52:14;23.90;24.60
75500;DHT22;64076;51.466;7.260;2023-11-22T14:54:41;23.90;24.70
75500;DHT22;64076;51.466;7.260;2023-11-22T14:57:07;23.90;24.70
75500;DHT22;64076;51.466;7.260;2023-11-22T14:59:35;23.90;24.70
75500;DHT22;64076;51.466;7.260;2023-11-22T15:02:02;23.90;24.80
75500;DHT22;64076;51.466;7.260;2023-11-22T15:04:30;23.90;24.80
75500;DHT22;64076;51.466;7.260;2023-11-22T15:06:56;23.90;24.80
75500;DHT22;64076;51.466;7.260;2023-11-22T15:09:21;23.90;24.80
75500;DHT22;64076;51.466;7.260;2023-11-22T15:11:47;23.80;24.90
75500;DHT22;64076;51.466;7.260;2023-11-22T15:14:13;23.80;25.00
75500;DHT22;64076;51.466;7.260;2023-11-22T15:16:38;23.80;24.90
75500;DHT22;64076;51.466;7.260;2023-11-22T15:19:04;23.80;24.90
75500;DHT22;64076;51.466;7.260;2023-11-22T15:21:32;23.80;24.90
75500;DHT22;64076;51.466;7.260;2023-11-22T15:23:59;23.80;25.00
75500;DHT22;64076;51.466;7.260;2023-11-22T15:26:24;23.80;25.00
75500;DHT22;64076;51.466;7.260;2023-11-22T15:28:50;23.80;25.00
75500;DHT22;64076;51.466;7.260;2023-11-22T15:31:16;23.80;25.00
75500;DHT22;64076;51.466;7.260;2023-11-22T15:33:42;23.80;25.00
75500;DHT22;64076;51.466;7.260;2023-11-22T15:36:08;23.70;25.00
75500;DHT22;64076;51.466;7.260;2023-11-22T15:38:33;23.70;25.10
75500;DHT22;64076;51.466;7.260;2023-11-22T15:41:01;23.70;25.10
75500;DHT22;64076;51.466;7.260;2023-11-22T15:43:28;23.70;25.10
75500;DHT22;64076;51.466;7.260;2023-11-22T15:45:57;23.70;25.20
75500;DHT22;64076;51.466;7.260;2023-11-22T15:48:24;23.70;25.20
75500;DHT22;64076;51.466;7.260;2023-11-22T15:50:53;23.70;25.30
75500;DHT22;64076;51.466;7.260;2023-11-22T15:53:19;23.70;25.40
75500;DHT22;64076;51.466;7.260;2023-11-22T15:55:45;23.70;25.30
75500;DHT22;64076;51.466;7.260;2023-11-22T15:58:13;23.70;25.40
75500;DHT22;64076;51.466;7.260;2023-11-22T16:00:42;23.70;25.50
75500;DHT22;64076;51.466;7.260;2023-11-22T16:03:07;23.70;25.50